createdAt,value
2022-11-05T00:03:22.480Z,99838.22
2022-11-05T00:08:40.919Z,99847.72
2022-11-05T00:14:00.411Z,99846.91
2022-11-05T00:19:07.507Z,99852.91
2022-11-05T00:24:28.668Z,99855.44
2022-11-05T00:29:30.854Z,99855.44
2022-11-05T00:34:31.666Z,99858.06
2022-11-05T00:39:32.472Z,99863.28
2022-11-05T00:44:52.289Z,99865.88
2022-11-05T00:49:53.036Z,99873.53
2022-11-05T00:54:53.841Z,99873.59
2022-11-05T00:59:55.998Z,99877.88
2022-11-05T01:04:56.806Z,99888.25
2022-11-05T01:09:57.575Z,99896.97
2022-11-05T01:14:59.900Z,99894.31
2022-11-05T01:20:00.699Z,99891.75
2022-11-05T01:25:01.708Z,99896.97
2022-11-05T01:30:04.937Z,99899.53
2022-11-05T01:35:06.900Z,99909.84
2022-11-05T01:40:10.240Z,99914.22
2022-11-05T01:45:17.927Z,99927.16
2022-11-05T01:50:29.954Z,99942.72
2022-11-05T01:55:35.026Z,99946.22
2022-11-05T02:00:37.707Z,99951.41
2022-11-05T02:05:41.418Z,99951.44
2022-11-05T02:10:44.696Z,99947.19
2022-11-05T02:15:56.849Z,99952.38
2022-11-05T02:21:11.661Z,99953.34
2022-11-05T02:26:44.597Z,99963.69
2022-11-05T02:31:55.403Z,99979.25
2022-11-05T02:37:06.573Z,99977.53
2022-11-05T02:42:16.301Z,99988.72
2022-11-05T02:47:26.920Z,99984.38
2022-11-05T02:52:35.325Z,99984.38
2022-11-05T02:57:37.359Z,99984.34
2022-11-05T03:02:39.758Z,99996.47
2022-11-05T03:07:50.410Z,100008.59
2022-11-05T03:13:02.808Z,100011.22
2022-11-05T03:18:13.032Z,100019.88
2022-11-05T03:23:26.612Z,100019.00
2022-11-05T03:28:32.427Z,100030.28
2022-11-05T03:33:37.406Z,100024.13
2022-11-05T03:38:42.359Z,100031.09
2022-11-05T03:43:47.905Z,100028.50
2022-11-05T03:48:55.367Z,100044.06
2022-11-05T03:53:58.767Z,100051.91
2022-11-05T03:59:01.565Z,100054.47
2022-11-05T04:04:04.250Z,100052.63
2022-11-05T04:09:22.535Z,100055.25
2022-11-05T04:14:23.390Z,100080.38
2022-11-05T04:19:39.483Z,100087.25
2022-11-05T04:24:40.336Z,100095.03
2022-11-05T04:29:59.526Z,100101.97
2022-11-05T04:35:01.696Z,100110.59
2022-11-05T04:40:02.552Z,100114.03
2022-11-05T04:45:03.474Z,100121.91
2022-11-05T04:50:06.084Z,100122.75
2022-11-05T04:55:07.513Z,100127.00
2022-11-05T05:00:10.951Z,100117.56
2022-11-05T05:05:13.733Z,100123.63
2022-11-05T05:10:14.587Z,100126.22
2022-11-05T05:15:15.429Z,100137.47
2022-11-05T05:20:35.444Z,100139.28
2022-11-05T05:25:36.208Z,100145.38
2022-11-05T05:30:37.166Z,100154.06
2022-11-05T05:35:40.601Z,100163.50
2022-11-05T05:40:41.579Z,100176.53
2022-11-05T05:45:42.354Z,100171.31
2022-11-05T05:50:44.488Z,100177.38
2022-11-05T05:55:45.268Z,100176.53
2022-11-05T06:00:46.059Z,100186.91
2022-11-05T06:05:48.988Z,100188.66
2022-11-05T06:10:52.272Z,100192.97
2022-11-05T06:15:53.553Z,100195.59
2022-11-05T06:20:55.953Z,100192.13
2022-11-05T06:26:00.855Z,100212.84
2022-11-05T06:31:02.075Z,100222.31
2022-11-05T06:36:05.708Z,100237.03
2022-11-05T06:41:10.337Z,100239.56
2022-11-05T06:46:12.477Z,100251.63
2022-11-05T06:51:14.590Z,100256.72
2022-11-05T06:56:15.383Z,100267.09
2022-11-05T07:01:16.505Z,100280.88
2022-11-05T07:06:18.829Z,100286.06
2022-11-05T07:11:19.655Z,100292.19
2022-11-05T07:16:20.445Z,100303.25
2022-11-05T07:21:22.607Z,100311.88
2022-11-05T07:26:23.411Z,100323.00
2022-11-05T07:31:24.275Z,100330.72
2022-11-05T07:36:26.729Z,100339.44
2022-11-05T07:41:28.451Z,100354.16
2022-11-05T07:46:29.310Z,100347.25
2022-11-05T07:51:31.474Z,100362.75
2022-11-05T07:56:34.283Z,100364.44
2022-11-05T08:01:35.412Z,100372.13
2022-11-05T08:06:41.933Z,100364.41
2022-11-05T08:11:42.793Z,100375.53
2022-11-05T08:16:43.644Z,100388.38
2022-11-05T08:21:45.814Z,100384.00
2022-11-05T08:26:47.747Z,100385.50
2022-11-05T08:31:48.634Z,100393.53
2022-11-05T08:36:50.789Z,100394.41
2022-11-05T08:41:51.582Z,100404.47
2022-11-05T08:46:52.755Z,100406.75
2022-11-05T08:51:55.134Z,100409.56
2022-11-05T08:56:55.953Z,100424.31
2022-11-05T09:01:56.836Z,100419.97
2022-11-05T09:06:59.060Z,100417.22
2022-11-05T09:12:12.199Z,100429.88
2022-11-05T09:17:18.049Z,100429.59
2022-11-05T09:22:20.334Z,100431.41
2022-11-05T09:27:21.394Z,100428.88
2022-11-05T09:32:23.293Z,100435.06
2022-11-05T09:37:25.651Z,100442.09
2022-11-05T09:42:32.649Z,100439.84
2022-11-05T09:47:37.635Z,100440.88
2022-11-05T09:52:39.853Z,100448.78
2022-11-05T09:57:46.885Z,100440.16
2022-11-05T10:02:51.830Z,100448.16
2022-11-05T10:07:59.396Z,100447.03
2022-11-05T10:13:06.180Z,100450.28
2022-11-05T10:18:15.759Z,100456.03
2022-11-05T10:23:20.791Z,100463.53
2022-11-05T10:28:24.829Z,100474.69
2022-11-05T10:33:33.202Z,100477.28
2022-11-05T10:38:35.408Z,100477.38
2022-11-05T10:43:41.496Z,100478.34
2022-11-05T10:48:54.078Z,100477.78
2022-11-05T10:54:02.087Z,100478.03
2022-11-05T10:59:12.082Z,100468.63
2022-11-05T11:04:18.206Z,100475.66
2022-11-05T11:09:23.787Z,100476.22
2022-11-05T11:14:24.582Z,100487.28
2022-11-05T11:19:28.725Z,100485.00
2022-11-05T11:24:33.573Z,100488.94
2022-11-05T11:29:40.505Z,100486.75
2022-11-05T11:34:46.804Z,100490.63
2022-11-05T11:39:52.540Z,100476.34
2022-11-05T11:44:53.608Z,100481.50
2022-11-05T11:49:57.139Z,100488.34
2022-11-05T11:55:29.446Z,100483.31
2022-11-05T12:00:32.590Z,100467.88
2022-11-05T12:05:44.727Z,100487.06
2022-11-05T12:10:59.174Z,100487.94
2022-11-05T12:16:08.543Z,100478.81
2022-11-05T12:21:34.562Z,100485.97
2022-11-05T12:26:54.521Z,100477.47
2022-11-05T12:32:05.676Z,100477.88
2022-11-05T12:37:20.759Z,100477.34
2022-11-05T12:42:42.217Z,100495.53
2022-11-05T12:47:57.092Z,100501.38
2022-11-05T12:53:28.121Z,100498.22
2022-11-05T12:58:34.347Z,100515.78
2022-11-05T13:03:43.401Z,100505.81
2022-11-05T13:08:47.925Z,100499.53
2022-11-05T13:14:00.603Z,100502.38
2022-11-05T13:19:08.192Z,100507.91
2022-11-05T13:24:16.237Z,100515.56
2022-11-05T13:29:23.503Z,100510.66
2022-11-05T13:34:24.427Z,100510.22
2022-11-05T13:39:28.826Z,100518.25
2022-11-05T13:44:59.528Z,100521.91
2022-11-05T13:50:29.877Z,100526.44
2022-11-05T13:55:57.088Z,100536.31
2022-11-05T14:01:10.234Z,100531.25
2022-11-05T14:06:11.776Z,100536.06
2022-11-05T14:11:22.880Z,100551.88
2022-11-05T14:16:27.002Z,100545.13
2022-11-05T14:21:34.211Z,100555.63
2022-11-05T14:26:35.024Z,100562.06
2022-11-05T14:32:08.666Z,100551.00
2022-11-05T14:37:37.068Z,100551.88
2022-11-05T14:42:38.485Z,100554.69
2022-11-05T14:47:45.265Z,100566.22
2022-11-05T14:52:53.635Z,100567.34
2022-11-05T14:58:23.248Z,100566.56
2022-11-05T15:04:17.126Z,100575.44
2022-11-05T15:09:28.252Z,100582.56
2022-11-05T15:14:33.334Z,100584.38
2022-11-05T15:19:38.045Z,100588.91
2022-11-05T15:24:42.674Z,100594.41
2022-11-05T15:29:44.022Z,100599.63
2022-11-05T15:34:53.933Z,100598.94
2022-11-05T15:39:56.431Z,100604.34
2022-11-05T15:44:58.615Z,100608.94
2022-11-05T15:50:03.768Z,100612.50
2022-11-05T15:55:11.102Z,100614.31
2022-11-05T16:00:18.468Z,100617.84
2022-11-05T16:05:21.570Z,100617.06
2022-11-05T16:10:26.594Z,100621.34
2022-11-05T16:15:32.218Z,100639.59
2022-11-05T16:20:37.000Z,100645.72
2022-11-05T16:25:40.013Z,100641.44
2022-11-05T16:30:40.827Z,100647.53
2022-11-05T16:35:49.177Z,100653.56
2022-11-05T16:40:50.006Z,100657.97
2022-11-05T16:45:53.920Z,100661.47
2022-11-05T16:50:56.147Z,100669.19
2022-11-05T16:55:57.193Z,100659.66
2022-11-05T17:01:02.855Z,100669.19
2022-11-05T17:06:05.381Z,100676.09
2022-11-05T17:11:06.904Z,100677.94
2022-11-05T17:16:10.583Z,100676.28
2022-11-05T17:21:14.125Z,100686.69
2022-11-05T17:26:15.210Z,100693.59
2022-11-05T17:31:17.345Z,100697.06
2022-11-05T17:36:19.519Z,100699.63
2022-11-05T17:41:22.231Z,100703.09
2022-11-05T17:46:23.554Z,100710.03
2022-11-05T17:51:25.726Z,100717.75
2022-11-05T17:56:33.840Z,100720.31
2022-11-05T18:01:42.798Z,100720.28
2022-11-05T18:06:45.630Z,100729.75
2022-11-05T18:11:46.882Z,100743.53
2022-11-05T18:16:47.699Z,100746.13
2022-11-05T18:21:49.835Z,100752.13
2022-11-05T18:26:51.172Z,100754.72
2022-11-05T18:31:52.033Z,100765.03
2022-11-05T18:36:56.529Z,100767.59
2022-11-05T18:41:57.592Z,100771.91
2022-11-05T18:46:59.034Z,100774.41
2022-11-05T18:52:01.271Z,100782.16
2022-11-05T18:57:02.317Z,100772.66
2022-11-05T19:02:03.608Z,100776.94
2022-11-05T19:07:06.547Z,100775.19
2022-11-05T19:12:08.500Z,100775.97
2022-11-05T19:17:09.360Z,100766.44
2022-11-05T19:22:11.746Z,100775.97
2022-11-05T19:27:12.647Z,100779.38
2022-11-05T19:32:13.475Z,100779.41
2022-11-05T19:37:16.799Z,100781.09
2022-11-05T19:42:17.599Z,100780.22
2022-11-05T19:47:18.402Z,100788.84
2022-11-05T19:52:20.608Z,100797.44
2022-11-05T19:57:21.526Z,100792.28
2022-11-05T20:02:22.500Z,100799.97
2022-11-05T20:07:24.946Z,100796.47
2022-11-05T20:12:25.893Z,100804.22
2022-11-05T20:17:26.989Z,100799.91
2022-11-05T20:22:29.257Z,100810.19
2022-11-05T20:27:30.543Z,100823.03
2022-11-05T20:32:32.132Z,100823.91
2022-11-05T20:37:34.670Z,100826.47
2022-11-05T20:42:37.273Z,100832.47
2022-11-05T20:47:38.578Z,100837.56
2022-11-05T20:52:41.210Z,100842.69
2022-11-05T20:57:42.524Z,100845.22
2022-11-05T21:02:43.572Z,100843.44
2022-11-05T21:07:45.946Z,100834.81
2022-11-05T21:12:47.248Z,100829.50
2022-11-05T21:17:48.125Z,100826.88
2022-11-05T21:22:50.598Z,100833.69
2022-11-05T21:27:51.425Z,100820.75
2022-11-05T21:32:53.351Z,100838.75
2022-11-05T21:37:55.581Z,100838.72
2022-11-05T21:42:56.393Z,100833.47
2022-11-05T21:47:57.449Z,100842.81
2022-11-05T21:53:17.238Z,100844.66
2022-11-05T21:58:36.079Z,100854.13
2022-11-05T22:03:37.088Z,100847.25
2022-11-05T22:08:39.765Z,100847.25
2022-11-05T22:13:40.552Z,100836.88
2022-11-05T22:18:41.363Z,100835.19
2022-11-05T22:23:43.539Z,100836.94
2022-11-05T22:28:44.408Z,100836.06
2022-11-05T22:33:45.378Z,100833.44
2022-11-05T22:38:47.575Z,100833.44
2022-11-05T22:43:48.890Z,100829.94
2022-11-05T22:48:49.889Z,100829.06
2022-11-05T22:53:52.281Z,100830.88
2022-11-05T22:58:53.577Z,100827.47
2022-11-05T23:03:57.337Z,100817.03
2022-11-05T23:09:18.014Z,100826.56
2022-11-05T23:14:18.797Z,100830.88
2022-11-05T23:19:37.565Z,100826.47
2022-11-05T23:24:40.048Z,100827.31
2022-11-05T23:29:41.777Z,100832.38
2022-11-05T23:34:42.606Z,100837.50
2022-11-05T23:39:44.730Z,100832.13
2022-11-05T23:45:03.013Z,100823.56
2022-11-05T23:50:04.031Z,100829.44
2022-11-05T23:55:06.768Z,100835.47
